sensor_id;sensor_type;location;lat;lon;timestamp;P1;durP1;ratioP1;P2;durP2;ratioP2
74658;SDS011;63186;51.204;6.536;2023-11-22T00:00:09;15.38;;;7.10;;
74658;SDS011;63186;51.204;6.536;2023-11-22T00:02:35;16.50;;;7.93;;
74658;SDS011;63186;51.204;6.536;2023-11-22T00:05:01;14.88;;;7.60;;
74658;SDS011;63186;51.204;6.536;2023-11-22T00:07:27;14.77;;;7.57;;
74658;SDS011;63186;51.204;6.536;2023-11-22T00:09:54;16.90;;;7.60;;
74658;SDS011;63186;51.204;6.536;2023-11-22T00:12:19;14.25;;;6.85;;
74658;SDS011;63186;51.204;6.536;2023-11-22T00:14:45;14.53;;;6.40;;
74658;SDS011;63186;51.204;6.536;2023-11-22T00:17:11;13.73;;;6.63;;
74658;SDS011;63186;51.204;6.536;2023-11-22T00:19:36;16.30;;;6.80;;
74658;SDS011;63186;51.204;6.536;2023-11-22T00:22:01;13.03;;;6.60;;
74658;SDS011;63186;51.204;6.536;2023-11-22T00:24:35;14.90;;;7.90;;
74658;SDS011;63186;51.204;6.536;2023-11-22T00:27:00;15.60;;;7.22;;
74658;SDS011;63186;51.204;6.536;2023-11-22T00:29:25;17.17;;;8.57;;
74658;SDS011;63186;51.204;6.536;2023-11-22T00:31:51;17.48;;;8.32;;
74658;SDS011;63186;51.204;6.536;2023-11-22T00:34:16;18.00;;;8.33;;
74658;SDS011;63186;51.204;6.536;2023-11-22T00:36:42;15.27;;;7.63;;
74658;SDS011;63186;51.204;6.536;2023-11-22T00:39:07;13.40;;;6.95;;
74658;SDS011;63186;51.204;6.536;2023-11-22T00:41:36;18.95;;;7.53;;
74658;SDS011;63186;51.204;6.536;2023-11-22T00:44:01;14.13;;;7.27;;
74658;SDS011;63186;51.204;6.536;2023-11-22T00:46:28;13.02;;;7.22;;
74658;SDS011;63186;51.204;6.536;2023-11-22T00:48:53;15.07;;;7.63;;
74658;SDS011;63186;51.204;6.536;2023-11-22T00:51:19;16.00;;;7.63;;
74658;SDS011;63186;51.204;6.536;2023-11-22T00:53:44;13.45;;;6.20;;
74658;SDS011;63186;51.204;6.536;2023-11-22T00:56:10;15.82;;;7.78;;
74658;SDS011;63186;51.204;6.536;2023-11-22T00:58:35;17.13;;;7.40;;
74658;SDS011;63186;51.204;6.536;2023-11-22T01:01:01;16.42;;;7.93;;
74658;SDS011;63186;51.204;6.536;2023-11-22T01:03:26;15.43;;;6.73;;
74658;SDS011;63186;51.204;6.536;2023-11-22T01:05:51;13.53;;;7.60;;
74658;SDS011;63186;51.204;6.536;2023-11-22T01:08:17;14.77;;;7.00;;
74658;SDS011;63186;51.204;6.536;2023-11-22T01:10:42;14.63;;;7.80;;
74658;SDS011;63186;51.204;6.536;2023-11-22T01:13:07;17.03;;;7.57;;
74658;SDS011;63186;51.204;6.536;2023-11-22T01:15:32;13.60;;;6.47;;
74658;SDS011;63186;51.204;6.536;2023-11-22T01:17:58;13.23;;;6.97;;
74658;SDS011;63186;51.204;6.536;2023-11-22T01:20:23;17.27;;;7.93;;
74658;SDS011;63186;51.204;6.536;2023-11-22T01:22:49;14.05;;;7.10;;
74658;SDS011;63186;51.204;6.536;2023-11-22T01:25:14;14.48;;;6.75;;
74658;SDS011;63186;51.204;6.536;2023-11-22T01:27:39;15.33;;;7.37;;
74658;SDS011;63186;51.204;6.536;2023-11-22T01:30:05;13.87;;;6.87;;
74658;SDS011;63186;51.204;6.536;2023-11-22T01:32:32;14.48;;;6.45;;
74658;SDS011;63186;51.204;6.536;2023-11-22T01:34:58;12.32;;;6.20;;
74658;SDS011;63186;51.204;6.536;2023-11-22T01:37:24;13.05;;;6.25;;
74658;SDS011;63186;51.204;6.536;2023-11-22T01:39:49;16.33;;;7.47;;
74658;SDS011;63186;51.204;6.536;2023-11-22T01:42:14;11.17;;;5.87;;
74658;SDS011;63186;51.204;6.536;2023-11-22T01:44:39;14.88;;;6.95;;
74658;SDS011;63186;51.204;6.536;2023-11-22T01:47:06;13.35;;;6.15;;
74658;SDS011;63186;51.204;6.536;2023-11-22T01:49:33;12.75;;;6.75;;
74658;SDS011;63186;51.204;6.536;2023-11-22T01:52:00;11.93;;;6.53;;
74658;SDS011;63186;51.204;6.536;2023-11-22T01:54:27;12.75;;;6.43;;
74658;SDS011;63186;51.204;6.536;2023-11-22T01:56:53;15.35;;;7.65;;
74658;SDS011;63186;51.204;6.536;2023-11-22T01:59:19;17.33;;;7.28;;
74658;SDS011;63186;51.204;6.536;2023-11-22T02:01:44;14.30;;;6.90;;
74658;SDS011;63186;51.204;6.536;2023-11-22T02:04:11;15.00;;;7.60;;
74658;SDS011;63186;51.204;6.536;2023-11-22T02:06:37;16.08;;;7.05;;
74658;SDS011;63186;51.204;6.536;2023-11-22T02:09:03;13.07;;;6.97;;
74658;SDS011;63186;51.204;6.536;2023-11-22T02:11:28;13.83;;;6.60;;
74658;SDS011;63186;51.204;6.536;2023-11-22T02:13:54;13.88;;;7.10;;
74658;SDS011;63186;51.204;6.536;2023-11-22T02:16:19;13.75;;;6.57;;
74658;SDS011;63186;51.204;6.536;2023-11-22T02:18:45;13.20;;;6.60;;
74658;SDS011;63186;51.204;6.536;2023-11-22T02:21:12;15.45;;;8.00;;
74658;SDS011;63186;51.204;6.536;2023-11-22T02:23:37;15.60;;;6.63;;
74658;SDS011;63186;51.204;6.536;2023-11-22T02:26:02;14.77;;;6.63;;
74658;SDS011;63186;51.204;6.536;2023-11-22T02:28:28;12.20;;;5.57;;
74658;SDS011;63186;51.204;6.536;2023-11-22T02:30:53;11.70;;;5.60;;
74658;SDS011;63186;51.204;6.536;2023-11-22T02:33:19;14.07;;;5.75;;
74658;SDS011;63186;51.204;6.536;2023-11-22T02:35:45;12.43;;;6.20;;
74658;SDS011;63186;51.204;6.536;2023-11-22T02:38:10;13.97;;;6.33;;
74658;SDS011;63186;51.204;6.536;2023-11-22T02:40:35;15.87;;;6.77;;
74658;SDS011;63186;51.204;6.536;2023-11-22T02:43:00;16.90;;;6.47;;
74658;SDS011;63186;51.204;6.536;2023-11-22T02:45:30;12.95;;;6.65;;
74658;SDS011;63186;51.204;6.536;2023-11-22T02:47:56;13.73;;;7.20;;
74658;SDS011;63186;51.204;6.536;2023-11-22T02:50:21;14.15;;;7.30;;
74658;SDS011;63186;51.204;6.536;2023-11-22T02:52:46;13.23;;;7.07;;
74658;SDS011;63186;51.204;6.536;2023-11-22T02:55:12;14.23;;;6.20;;
74658;SDS011;63186;51.204;6.536;2023-11-22T02:57:37;10.93;;;5.17;;
74658;SDS011;63186;51.204;6.536;2023-11-22T03:00:05;15.57;;;6.85;;
74658;SDS011;63186;51.204;6.536;2023-11-22T03:02:32;12.68;;;6.07;;
74658;SDS011;63186;51.204;6.536;2023-11-22T03:04:57;14.10;;;7.07;;
74658;SDS011;63186;51.204;6.536;2023-11-22T03:07:23;13.60;;;6.80;;
74658;SDS011;63186;51.204;6.536;2023-11-22T03:09:50;15.48;;;6.57;;
74658;SDS011;63186;51.204;6.536;2023-11-22T03:12:17;14.13;;;6.30;;
74658;SDS011;63186;51.204;6.536;2023-11-22T03:14:43;13.13;;;5.88;;
74658;SDS011;63186;51.204;6.536;2023-11-22T03:17:08;13.77;;;5.73;;
74658;SDS011;63186;51.204;6.536;2023-11-22T03:19:33;14.50;;;7.33;;
74658;SDS011;63186;51.204;6.536;2023-11-22T03:21:59;14.00;;;6.60;;
74658;SDS011;63186;51.204;6.536;2023-11-22T03:24:28;13.02;;;6.07;;
74658;SDS011;63186;51.204;6.536;2023-11-22T03:26:54;14.65;;;6.70;;
74658;SDS011;63186;51.204;6.536;2023-11-22T03:29:21;15.10;;;6.28;;
74658;SDS011;63186;51.204;6.536;2023-11-22T03:31:46;15.97;;;8.00;;
74658;SDS011;63186;51.204;6.536;2023-11-22T03:34:12;17.52;;;7.43;;
74658;SDS011;63186;51.204;6.536;2023-11-22T03:36:39;17.55;;;7.88;;
74658;SDS011;63186;51.204;6.536;2023-11-22T03:39:05;14.45;;;5.95;;
74658;SDS011;63186;51.204;6.536;2023-11-22T03:41:30;14.80;;;7.07;;
74658;SDS011;63186;51.204;6.536;2023-11-22T03:43:55;16.23;;;7.40;;
74658;SDS011;63186;51.204;6.536;2023-11-22T03:46:21;15.17;;;6.77;;
74658;SDS011;63186;51.204;6.536;2023-11-22T03:48:46;17.40;;;8.30;;
74658;SDS011;63186;51.204;6.536;2023-11-22T03:51:12;15.55;;;7.50;;
74658;SDS011;63186;51.204;6.536;2023-11-22T03:53:37;13.80;;;6.37;;
74658;SDS011;63186;51.204;6.536;2023-11-22T03:56:02;14.93;;;6.37;;
74658;SDS011;63186;51.204;6.536;2023-11-22T03:58:28;14.57;;;6.70;;
74658;SDS011;63186;51.204;6.536;2023-11-22T04:00:53;17.53;;;8.23;;
74658;SDS011;63186;51.204;6.536;2023-11-22T04:03:18;14.23;;;7.22;;
74658;SDS011;63186;51.204;6.536;2023-11-22T04:05:43;16.93;;;6.77;;
74658;SDS011;63186;51.204;6.536;2023-11-22T04:08:09;14.98;;;6.57;;
74658;SDS011;63186;51.204;6.536;2023-11-22T04:10:34;15.48;;;6.82;;
74658;SDS011;63186;51.204;6.536;2023-11-22T04:13:00;16.88;;;8.77;;
74658;SDS011;63186;51.204;6.536;2023-11-22T04:15:25;13.27;;;5.77;;
74658;SDS011;63186;51.204;6.536;2023-11-22T04:17:51;16.15;;;7.63;;
74658;SDS011;63186;51.204;6.536;2023-11-22T04:20:19;14.43;;;5.88;;
74658;SDS011;63186;51.204;6.536;2023-11-22T04:22:44;13.55;;;6.15;;
74658;SDS011;63186;51.204;6.536;2023-11-22T04:25:10;15.52;;;7.20;;
74658;SDS011;63186;51.204;6.536;2023-11-22T04:27:38;15.07;;;6.80;;
74658;SDS011;63186;51.204;6.536;2023-11-22T04:30:04;14.13;;;6.70;;
74658;SDS011;63186;51.204;6.536;2023-11-22T04:32:33;17.63;;;6.22;;
74658;SDS011;63186;51.204;6.536;2023-11-22T04:34:58;16.77;;;7.65;;
74658;SDS011;63186;51.204;6.536;2023-11-22T04:37:24;13.93;;;6.73;;
74658;SDS011;63186;51.204;6.536;2023-11-22T04:39:51;14.23;;;6.85;;
74658;SDS011;63186;51.204;6.536;2023-11-22T04:42:17;14.70;;;7.75;;
74658;SDS011;63186;51.204;6.536;2023-11-22T04:44:42;15.37;;;7.07;;
74658;SDS011;63186;51.204;6.536;2023-11-22T04:47:08;18.60;;;8.37;;
74658;SDS011;63186;51.204;6.536;2023-11-22T04:49:33;14.87;;;6.97;;
74658;SDS011;63186;51.204;6.536;2023-11-22T04:51:58;15.67;;;6.17;;
74658;SDS011;63186;51.204;6.536;2023-11-22T04:54:23;13.90;;;7.00;;
74658;SDS011;63186;51.204;6.536;2023-11-22T04:56:49;16.07;;;8.10;;
74658;SDS011;63186;51.204;6.536;2023-11-22T04:59:15;16.80;;;7.90;;
74658;SDS011;63186;51.204;6.536;2023-11-22T05:01:41;15.25;;;7.22;;
74658;SDS011;63186;51.204;6.536;2023-11-22T05:04:06;18.30;;;7.20;;
74658;SDS011;63186;51.204;6.536;2023-11-22T05:06:31;16.33;;;7.00;;
74658;SDS011;63186;51.204;6.536;2023-11-22T05:08:56;15.93;;;7.35;;
74658;SDS011;63186;51.204;6.536;2023-11-22T05:11:22;15.15;;;5.53;;
74658;SDS011;63186;51.204;6.536;2023-11-22T05:13:47;12.07;;;5.37;;
74658;SDS011;63186;51.204;6.536;2023-11-22T05:16:12;14.97;;;7.03;;
74658;SDS011;63186;51.204;6.536;2023-11-22T05:18:38;12.43;;;5.07;;
74658;SDS011;63186;51.204;6.536;2023-11-22T05:21:03;18.67;;;6.83;;
74658;SDS011;63186;51.204;6.536;2023-11-22T05:23:29;14.40;;;7.75;;
74658;SDS011;63186;51.204;6.536;2023-11-22T05:25:54;14.27;;;5.93;;
74658;SDS011;63186;51.204;6.536;2023-11-22T05:28:20;16.45;;;6.53;;
74658;SDS011;63186;51.204;6.536;2023-11-22T05:30:46;13.27;;;7.30;;
74658;SDS011;63186;51.204;6.536;2023-11-22T05:33:11;13.57;;;6.27;;
74658;SDS011;63186;51.204;6.536;2023-11-22T05:35:36;15.87;;;8.00;;
74658;SDS011;63186;51.204;6.536;2023-11-22T05:38:02;20.43;;;9.53;;
74658;SDS011;63186;51.204;6.536;2023-11-22T05:40:27;17.97;;;7.77;;
74658;SDS011;63186;51.204;6.536;2023-11-22T05:42:52;15.77;;;8.93;;
74658;SDS011;63186;51.204;6.536;2023-11-22T05:45:17;16.00;;;8.20;;
74658;SDS011;63186;51.204;6.536;2023-11-22T05:47:43;16.73;;;7.28;;
74658;SDS011;63186;51.204;6.536;2023-11-22T05:50:08;15.33;;;7.47;;
74658;SDS011;63186;51.204;6.536;2023-11-22T05:52:34;17.75;;;8.25;;
74658;SDS011;63186;51.204;6.536;2023-11-22T05:54:59;17.15;;;8.10;;
74658;SDS011;63186;51.204;6.536;2023-11-22T05:59:53;13.63;;;6.37;;
74658;SDS011;63186;51.204;6.536;2023-11-22T06:02:19;15.40;;;7.13;;
74658;SDS011;63186;51.204;6.536;2023-11-22T06:04:44;13.17;;;6.50;;
74658;SDS011;63186;51.204;6.536;2023-11-22T06:07:09;15.03;;;6.70;;
74658;SDS011;63186;51.204;6.536;2023-11-22T06:09:35;14.95;;;7.80;;
74658;SDS011;63186;51.204;6.536;2023-11-22T06:12:01;14.50;;;7.35;;
74658;SDS011;63186;51.204;6.536;2023-11-22T06:14:26;15.60;;;7.37;;
74658;SDS011;63186;51.204;6.536;2023-11-22T06:16:51;16.70;;;8.17;;
74658;SDS011;63186;51.204;6.536;2023-11-22T06:19:17;16.30;;;6.82;;
74658;SDS011;63186;51.204;6.536;2023-11-22T06:21:42;12.63;;;5.82;;
74658;SDS011;63186;51.204;6.536;2023-11-22T06:24:08;14.70;;;5.23;;
74658;SDS011;63186;51.204;6.536;2023-11-22T06:26:34;11.20;;;5.05;;
74658;SDS011;63186;51.204;6.536;2023-11-22T06:28:59;15.07;;;6.38;;
74658;SDS011;63186;51.204;6.536;2023-11-22T06:31:25;18.88;;;7.03;;
74658;SDS011;63186;51.204;6.536;2023-11-22T06:33:50;12.93;;;6.80;;
74658;SDS011;63186;51.204;6.536;2023-11-22T06:36:17;12.60;;;5.70;;
74658;SDS011;63186;51.204;6.536;2023-11-22T06:38:43;17.10;;;8.27;;
74658;SDS011;63186;51.204;6.536;2023-11-22T06:41:08;17.67;;;7.53;;
74658;SDS011;63186;51.204;6.536;2023-11-22T06:43:34;13.03;;;7.30;;
74658;SDS011;63186;51.204;6.536;2023-11-22T06:45:59;16.10;;;7.73;;
74658;SDS011;63186;51.204;6.536;2023-11-22T06:48:27;16.45;;;7.68;;
74658;SDS011;63186;51.204;6.536;2023-11-22T06:50:52;16.03;;;7.40;;
74658;SDS011;63186;51.204;6.536;2023-11-22T06:53:17;13.73;;;6.43;;
74658;SDS011;63186;51.204;6.536;2023-11-22T06:55:44;16.02;;;7.00;;
74658;SDS011;63186;51.204;6.536;2023-11-22T06:58:10;14.02;;;6.15;;
74658;SDS011;63186;51.204;6.536;2023-11-22T07:00:36;14.52;;;6.28;;
74658;SDS011;63186;51.204;6.536;2023-11-22T07:03:01;12.07;;;6.13;;
74658;SDS011;63186;51.204;6.536;2023-11-22T07:05:26;13.13;;;6.20;;
74658;SDS011;63186;51.204;6.536;2023-11-22T07:07:52;11.93;;;6.53;;
74658;SDS011;63186;51.204;6.536;2023-11-22T07:10:19;11.88;;;5.53;;
74658;SDS011;63186;51.204;6.536;2023-11-22T07:12:45;12.65;;;6.18;;
74658;SDS011;63186;51.204;6.536;2023-11-22T07:15:12;14.52;;;5.47;;
74658;SDS011;63186;51.204;6.536;2023-11-22T07:17:38;13.88;;;6.38;;
74658;SDS011;63186;51.204;6.536;2023-11-22T07:20:04;19.47;;;6.53;;
74658;SDS011;63186;51.204;6.536;2023-11-22T07:22:34;15.63;;;7.05;;
74658;SDS011;63186;51.204;6.536;2023-11-22T07:24:59;13.88;;;6.90;;
74658;SDS011;63186;51.204;6.536;2023-11-22T07:27:27;15.75;;;7.07;;
74658;SDS011;63186;51.204;6.536;2023-11-22T07:29:53;13.20;;;6.35;;
74658;SDS011;63186;51.204;6.536;2023-11-22T07:32:19;12.93;;;5.28;;
74658;SDS011;63186;51.204;6.536;2023-11-22T07:34:45;12.25;;;5.10;;
74658;SDS011;63186;51.204;6.536;2023-11-22T07:37:11;12.40;;;4.75;;
74658;SDS011;63186;51.204;6.536;2023-11-22T07:39:37;11.27;;;4.75;;
74658;SDS011;63186;51.204;6.536;2023-11-22T07:42:04;11.80;;;5.35;;
74658;SDS011;63186;51.204;6.536;2023-11-22T07:49:25;11.97;;;5.03;;
74658;SDS011;63186;51.204;6.536;2023-11-22T07:51:51;13.20;;;5.50;;
74658;SDS011;63186;51.204;6.536;2023-11-22T07:54:18;11.88;;;5.43;;
74658;SDS011;63186;51.204;6.536;2023-11-22T07:56:43;12.65;;;6.60;;
74658;SDS011;63186;51.204;6.536;2023-11-22T07:59:09;13.95;;;7.78;;
74658;SDS011;63186;51.204;6.536;2023-11-22T08:01:38;12.25;;;5.85;;
74658;SDS011;63186;51.204;6.536;2023-11-22T08:04:04;13.30;;;6.55;;
74658;SDS011;63186;51.204;6.536;2023-11-22T08:06:30;14.35;;;6.68;;
74658;SDS011;63186;51.204;6.536;2023-11-22T08:08:56;14.88;;;7.07;;
74658;SDS011;63186;51.204;6.536;2023-11-22T08:11:22;17.13;;;7.65;;
74658;SDS011;63186;51.204;6.536;2023-11-22T08:13:47;14.67;;;7.30;;
74658;SDS011;63186;51.204;6.536;2023-11-22T08:16:13;14.07;;;7.30;;
74658;SDS011;63186;51.204;6.536;2023-11-22T08:18:38;13.35;;;7.60;;
74658;SDS011;63186;51.204;6.536;2023-11-22T08:21:05;15.13;;;6.80;;
74658;SDS011;63186;51.204;6.536;2023-11-22T08:23:31;17.75;;;8.35;;
74658;SDS011;63186;51.204;6.536;2023-11-22T08:25:58;12.55;;;5.70;;
74658;SDS011;63186;51.204;6.536;2023-11-22T08:28:26;14.27;;;6.88;;
74658;SDS011;63186;51.204;6.536;2023-11-22T08:30:52;13.68;;;7.25;;
74658;SDS011;63186;51.204;6.536;2023-11-22T08:33:18;13.52;;;6.93;;
74658;SDS011;63186;51.204;6.536;2023-11-22T08:35:43;15.07;;;6.47;;
74658;SDS011;63186;51.204;6.536;2023-11-22T08:38:08;13.70;;;6.95;;
74658;SDS011;63186;51.204;6.536;2023-11-22T08:40:35;14.50;;;7.28;;
74658;SDS011;63186;51.204;6.536;2023-11-22T08:43:02;14.98;;;7.32;;
74658;SDS011;63186;51.204;6.536;2023-11-22T08:45:29;14.48;;;7.07;;
74658;SDS011;63186;51.204;6.536;2023-11-22T08:47:54;15.68;;;7.20;;
74658;SDS011;63186;51.204;6.536;2023-11-22T08:50:20;14.23;;;6.43;;
74658;SDS011;63186;51.204;6.536;2023-11-22T08:52:46;11.27;;;5.43;;
74658;SDS011;63186;51.204;6.536;2023-11-22T08:55:12;10.55;;;5.40;;
74658;SDS011;63186;51.204;6.536;2023-11-22T08:57:39;11.35;;;6.60;;
74658;SDS011;63186;51.204;6.536;2023-11-22T09:00:05;11.65;;;6.22;;
74658;SDS011;63186;51.204;6.536;2023-11-22T09:02:33;10.15;;;5.13;;
74658;SDS011;63186;51.204;6.536;2023-11-22T09:04:59;12.68;;;5.22;;
74658;SDS011;63186;51.204;6.536;2023-11-22T09:07:24;10.30;;;5.57;;
74658;SDS011;63186;51.204;6.536;2023-11-22T09:09:49;11.00;;;5.13;;
74658;SDS011;63186;51.204;6.536;2023-11-22T09:12:16;10.63;;;5.50;;
74658;SDS011;63186;51.204;6.536;2023-11-22T09:14:44;10.95;;;5.47;;
74658;SDS011;63186;51.204;6.536;2023-11-22T09:17:10;10.57;;;5.32;;
74658;SDS011;63186;51.204;6.536;2023-11-22T09:19:35;9.88;;;5.30;;
74658;SDS011;63186;51.204;6.536;2023-11-22T09:22:01;10.98;;;5.32;;
74658;SDS011;63186;51.204;6.536;2023-11-22T09:24:26;12.80;;;5.50;;
74658;SDS011;63186;51.204;6.536;2023-11-22T09:26:52;12.88;;;4.93;;
74658;SDS011;63186;51.204;6.536;2023-11-22T09:29:17;10.13;;;4.47;;
74658;SDS011;63186;51.204;6.536;2023-11-22T09:31:43;11.02;;;5.60;;
74658;SDS011;63186;51.204;6.536;2023-11-22T09:34:12;9.77;;;4.78;;
74658;SDS011;63186;51.204;6.536;2023-11-22T09:36:38;11.35;;;5.38;;
74658;SDS011;63186;51.204;6.536;2023-11-22T09:39:03;9.98;;;5.30;;
74658;SDS011;63186;51.204;6.536;2023-11-22T09:41:33;14.65;;;6.63;;
74658;SDS011;63186;51.204;6.536;2023-11-22T09:43:59;10.75;;;5.45;;
74658;SDS011;63186;51.204;6.536;2023-11-22T09:46:24;10.93;;;5.50;;
74658;SDS011;63186;51.204;6.536;2023-11-22T09:48:52;12.15;;;4.47;;
74658;SDS011;63186;51.204;6.536;2023-11-22T09:51:21;10.20;;;4.65;;
74658;SDS011;63186;51.204;6.536;2023-11-22T09:53:52;10.85;;;4.57;;
74658;SDS011;63186;51.204;6.536;2023-11-22T09:56:25;9.13;;;4.05;;
74658;SDS011;63186;51.204;6.536;2023-11-22T09:58:52;10.63;;;5.03;;
74658;SDS011;63186;51.204;6.536;2023-11-22T10:01:20;9.40;;;4.15;;
74658;SDS011;63186;51.204;6.536;2023-11-22T10:03:49;9.50;;;4.45;;
74658;SDS011;63186;51.204;6.536;2023-11-22T10:06:15;11.57;;;5.15;;
74658;SDS011;63186;51.204;6.536;2023-11-22T10:08:42;9.95;;;4.47;;
74658;SDS011;63186;51.204;6.536;2023-11-22T10:11:08;9.30;;;4.60;;
74658;SDS011;63186;51.204;6.536;2023-11-22T10:13:33;10.30;;;4.72;;
74658;SDS011;63186;51.204;6.536;2023-11-22T10:16:12;13.43;;;6.03;;
74658;SDS011;63186;51.204;6.536;2023-11-22T10:18:44;12.20;;;5.72;;
74658;SDS011;63186;51.204;6.536;2023-11-22T10:23:54;12.18;;;5.70;;
74658;SDS011;63186;51.204;6.536;2023-11-22T10:26:21;12.07;;;6.60;;
74658;SDS011;63186;51.204;6.536;2023-11-22T10:28:50;14.95;;;7.63;;
74658;SDS011;63186;51.204;6.536;2023-11-22T10:31:17;13.57;;;7.43;;
74658;SDS011;63186;51.204;6.536;2023-11-22T10:33:43;15.75;;;9.25;;
74658;SDS011;63186;51.204;6.536;2023-11-22T10:36:08;17.00;;;9.27;;
74658;SDS011;63186;51.204;6.536;2023-11-22T10:38:34;12.95;;;6.28;;
74658;SDS011;63186;51.204;6.536;2023-11-22T10:41:03;17.42;;;8.35;;
74658;SDS011;63186;51.204;6.536;2023-11-22T10:45:57;13.43;;;7.15;;
74658;SDS011;63186;51.204;6.536;2023-11-22T10:48:23;13.05;;;6.72;;
74658;SDS011;63186;51.204;6.536;2023-11-22T10:50:50;14.65;;;8.07;;
74658;SDS011;63186;51.204;6.536;2023-11-22T10:53:30;13.73;;;6.47;;
74658;SDS011;63186;51.204;6.536;2023-11-22T10:55:59;13.65;;;7.25;;
74658;SDS011;63186;51.204;6.536;2023-11-22T10:58:30;14.02;;;6.75;;
74658;SDS011;63186;51.204;6.536;2023-11-22T11:00:57;11.48;;;6.03;;
74658;SDS011;63186;51.204;6.536;2023-11-22T11:03:23;22.02;;;6.43;;
74658;SDS011;63186;51.204;6.536;2023-11-22T11:05:59;11.48;;;5.75;;
74658;SDS011;63186;51.204;6.536;2023-11-22T11:08:29;12.80;;;6.28;;
74658;SDS011;63186;51.204;6.536;2023-11-22T11:10:55;11.70;;;6.65;;
74658;SDS011;63186;51.204;6.536;2023-11-22T11:13:23;15.23;;;8.50;;
74658;SDS011;63186;51.204;6.536;2023-11-22T11:15:49;13.65;;;7.35;;
74658;SDS011;63186;51.204;6.536;2023-11-22T11:18:15;14.27;;;6.70;;
74658;SDS011;63186;51.204;6.536;2023-11-22T11:20:45;13.75;;;6.97;;
74658;SDS011;63186;51.204;6.536;2023-11-22T11:23:15;13.23;;;6.63;;
74658;SDS011;63186;51.204;6.536;2023-11-22T11:25:41;14.68;;;7.85;;
74658;SDS011;63186;51.204;6.536;2023-11-22T11:28:11;16.05;;;7.57;;
74658;SDS011;63186;51.204;6.536;2023-11-22T11:33:13;12.40;;;6.65;;
74658;SDS011;63186;51.204;6.536;2023-11-22T11:38:11;12.57;;;6.18;;
74658;SDS011;63186;51.204;6.536;2023-11-22T11:40:38;13.23;;;6.50;;
74658;SDS011;63186;51.204;6.536;2023-11-22T11:43:05;11.73;;;6.82;;
74658;SDS011;63186;51.204;6.536;2023-11-22T11:45:34;12.63;;;6.07;;
74658;SDS011;63186;51.204;6.536;2023-11-22T11:48:04;11.88;;;6.13;;
74658;SDS011;63186;51.204;6.536;2023-11-22T11:50:29;13.20;;;7.00;;
74658;SDS011;63186;51.204;6.536;2023-11-22T11:52:55;15.88;;;6.68;;
74658;SDS011;63186;51.204;6.536;2023-11-22T11:55:20;15.47;;;6.23;;
74658;SDS011;63186;51.204;6.536;2023-11-22T11:57:45;12.97;;;6.67;;
74658;SDS011;63186;51.204;6.536;2023-11-22T12:00:13;13.75;;;6.97;;
74658;SDS011;63186;51.204;6.536;2023-11-22T12:02:39;16.02;;;6.78;;
74658;SDS011;63186;51.204;6.536;2023-11-22T12:05:05;11.40;;;5.90;;
74658;SDS011;63186;51.204;6.536;2023-11-22T12:07:33;11.27;;;6.22;;
74658;SDS011;63186;51.204;6.536;2023-11-22T12:09:59;14.68;;;6.63;;
74658;SDS011;63186;51.204;6.536;2023-11-22T12:12:25;12.98;;;6.47;;
74658;SDS011;63186;51.204;6.536;2023-11-22T12:14:50;11.80;;;5.67;;
74658;SDS011;63186;51.204;6.536;2023-11-22T12:17:16;11.95;;;5.43;;
74658;SDS011;63186;51.204;6.536;2023-11-22T12:19:41;14.40;;;6.20;;
74658;SDS011;63186;51.204;6.536;2023-11-22T12:22:07;12.75;;;7.30;;
74658;SDS011;63186;51.204;6.536;2023-11-22T12:24:33;11.27;;;5.93;;
74658;SDS011;63186;51.204;6.536;2023-11-22T12:26:58;12.68;;;6.43;;
74658;SDS011;63186;51.204;6.536;2023-11-22T12:29:25;12.82;;;6.53;;
74658;SDS011;63186;51.204;6.536;2023-11-22T12:31:50;11.52;;;5.43;;
74658;SDS011;63186;51.204;6.536;2023-11-22T12:34:18;11.18;;;5.32;;
74658;SDS011;63186;51.204;6.536;2023-11-22T12:36:45;12.90;;;5.72;;
74658;SDS011;63186;51.204;6.536;2023-11-22T12:39:12;8.25;;;4.13;;
74658;SDS011;63186;51.204;6.536;2023-11-22T12:41:45;8.15;;;3.50;;
74658;SDS011;63186;51.204;6.536;2023-11-22T12:44:13;9.23;;;3.78;;
74658;SDS011;63186;51.204;6.536;2023-11-22T12:47:11;6.70;;;2.78;;
74658;SDS011;63186;51.204;6.536;2023-11-22T12:49:42;7.60;;;2.92;;
74658;SDS011;63186;51.204;6.536;2023-11-22T12:52:09;4.85;;;2.22;;
74658;SDS011;63186;51.204;6.536;2023-11-22T12:54:34;5.80;;;2.37;;
74658;SDS011;63186;51.204;6.536;2023-11-22T12:57:00;6.18;;;2.50;;
74658;SDS011;63186;51.204;6.536;2023-11-22T12:59:25;4.53;;;2.08;;
74658;SDS011;63186;51.204;6.536;2023-11-22T13:01:55;4.90;;;2.22;;
74658;SDS011;63186;51.204;6.536;2023-11-22T13:04:21;4.28;;;2.03;;
74658;SDS011;63186;51.204;6.536;2023-11-22T13:06:46;4.30;;;1.97;;
74658;SDS011;63186;51.204;6.536;2023-11-22T13:09:12;3.27;;;1.90;;
74658;SDS011;63186;51.204;6.536;2023-11-22T13:11:40;4.72;;;2.33;;
74658;SDS011;63186;51.204;6.536;2023-11-22T13:14:07;4.97;;;1.90;;
74658;SDS011;63186;51.204;6.536;2023-11-22T13:16:33;5.40;;;1.95;;
74658;SDS011;63186;51.204;6.536;2023-11-22T13:18:59;5.75;;;2.60;;
74658;SDS011;63186;51.204;6.536;2023-11-22T13:21:25;9.40;;;3.65;;
74658;SDS011;63186;51.204;6.536;2023-11-22T13:23:51;9.95;;;3.83;;
74658;SDS011;63186;51.204;6.536;2023-11-22T13:26:17;8.15;;;3.50;;
74658;SDS011;63186;51.204;6.536;2023-11-22T13:28:42;8.60;;;2.90;;
74658;SDS011;63186;51.204;6.536;2023-11-22T13:31:07;7.87;;;3.00;;
74658;SDS011;63186;51.204;6.536;2023-11-22T13:33:33;6.50;;;2.85;;
74658;SDS011;63186;51.204;6.536;2023-11-22T13:35:59;7.38;;;2.83;;
74658;SDS011;63186;51.204;6.536;2023-11-22T13:38:24;6.83;;;3.10;;
74658;SDS011;63186;51.204;6.536;2023-11-22T13:40:49;7.33;;;2.87;;
74658;SDS011;63186;51.204;6.536;2023-11-22T13:43:14;8.20;;;3.43;;
74658;SDS011;63186;51.204;6.536;2023-11-22T13:45:42;8.18;;;3.05;;
74658;SDS011;63186;51.204;6.536;2023-11-22T13:48:07;8.02;;;3.10;;
74658;SDS011;63186;51.204;6.536;2023-11-22T13:50:34;8.20;;;2.70;;
74658;SDS011;63186;51.204;6.536;2023-11-22T13:53:00;8.73;;;3.50;;
74658;SDS011;63186;51.204;6.536;2023-11-22T13:55:26;10.35;;;4.20;;
74658;SDS011;63186;51.204;6.536;2023-11-22T13:57:53;10.20;;;4.30;;
74658;SDS011;63186;51.204;6.536;2023-11-22T14:00:20;10.23;;;4.35;;
74658;SDS011;63186;51.204;6.536;2023-11-22T14:02:55;9.10;;;4.28;;
74658;SDS011;63186;51.204;6.536;2023-11-22T14:05:25;10.25;;;4.55;;
74658;SDS011;63186;51.204;6.536;2023-11-22T14:07:51;11.20;;;3.83;;
74658;SDS011;63186;51.204;6.536;2023-11-22T14:10:17;10.70;;;4.72;;
74658;SDS011;63186;51.204;6.536;2023-11-22T14:12:43;10.88;;;4.30;;
74658;SDS011;63186;51.204;6.536;2023-11-22T14:15:09;10.50;;;4.32;;
74658;SDS011;63186;51.204;6.536;2023-11-22T14:17:36;10.07;;;4.20;;
74658;SDS011;63186;51.204;6.536;2023-11-22T14:20:03;8.90;;;3.53;;
74658;SDS011;63186;51.204;6.536;2023-11-22T14:22:30;7.90;;;3.00;;
74658;SDS011;63186;51.204;6.536;2023-11-22T14:24:56;6.80;;;2.90;;
74658;SDS011;63186;51.204;6.536;2023-11-22T14:27:22;8.82;;;3.03;;
74658;SDS011;63186;51.204;6.536;2023-11-22T14:29:47;7.63;;;2.78;;
74658;SDS011;63186;51.204;6.536;2023-11-22T14:32:15;6.18;;;2.75;;
74658;SDS011;63186;51.204;6.536;2023-11-22T14:34:40;5.47;;;2.70;;
74658;SDS011;63186;51.204;6.536;2023-11-22T14:37:08;7.85;;;3.70;;
74658;SDS011;63186;51.204;6.536;2023-11-22T14:39:34;8.13;;;3.20;;
74658;SDS011;63186;51.204;6.536;2023-11-22T14:41:59;9.43;;;3.97;;
74658;SDS011;63186;51.204;6.536;2023-11-22T14:44:25;7.70;;;3.70;;
74658;SDS011;63186;51.204;6.536;2023-11-22T14:46:50;7.73;;;3.47;;